sensor_id;sensor_type;location;lat;lon;timestamp;P1;durP1;ratioP1;P2;durP2;ratioP2
69310;SDS011;56430;48.154;16.458;2023-05-10T00:02:06;2.70;;;0.80;;
69310;SDS011;56430;48.154;16.458;2023-05-10T00:04:33;1.50;;;0.40;;
69310;SDS011;56430;48.154;16.458;2023-05-10T00:07:00;2.88;;;0.55;;
69310;SDS011;56430;48.154;16.458;2023-05-10T00:09:28;2.92;;;0.73;;
69310;SDS011;56430;48.154;16.458;2023-05-10T00:11:55;2.20;;;0.67;;
69310;SDS011;56430;48.154;16.458;2023-05-10T00:14:23;3.47;;;0.65;;
69310;SDS011;56430;48.154;16.458;2023-05-10T00:16:50;1.90;;;0.60;;
69310;SDS011;56430;48.154;16.458;2023-05-10T00:19:17;2.10;;;0.52;;
69310;SDS011;56430;48.154;16.458;2023-05-10T00:21:44;1.85;;;0.60;;
69310;SDS011;56430;48.154;16.458;2023-05-10T00:24:11;2.37;;;1.10;;
69310;SDS011;56430;48.154;16.458;2023-05-10T00:26:39;3.22;;;0.70;;
69310;SDS011;56430;48.154;16.458;2023-05-10T00:29:07;2.05;;;0.63;;
69310;SDS011;56430;48.154;16.458;2023-05-10T00:31:34;1.77;;;0.50;;
69310;SDS011;56430;48.154;16.458;2023-05-10T00:34:01;2.58;;;0.60;;
69310;SDS011;56430;48.154;16.458;2023-05-10T00:36:28;4.53;;;0.70;;
69310;SDS011;56430;48.154;16.458;2023-05-10T00:38:54;3.50;;;0.70;;
69310;SDS011;56430;48.154;16.458;2023-05-10T00:41:21;2.40;;;0.75;;
69310;SDS011;56430;48.154;16.458;2023-05-10T00:43:49;2.97;;;0.85;;
69310;SDS011;56430;48.154;16.458;2023-05-10T00:46:16;3.45;;;0.90;;
69310;SDS011;56430;48.154;16.458;2023-05-10T00:48:43;2.00;;;0.50;;
69310;SDS011;56430;48.154;16.458;2023-05-10T00:51:11;5.53;;;0.77;;
69310;SDS011;56430;48.154;16.458;2023-05-10T00:53:38;3.25;;;0.70;;
69310;SDS011;56430;48.154;16.458;2023-05-10T00:56:05;2.85;;;0.77;;
69310;SDS011;56430;48.154;16.458;2023-05-10T00:58:32;2.50;;;0.63;;
69310;SDS011;56430;48.154;16.458;2023-05-10T01:01:00;4.07;;;0.80;;
69310;SDS011;56430;48.154;16.458;2023-05-10T01:03:27;2.83;;;0.70;;
69310;SDS011;56430;48.154;16.458;2023-05-10T01:05:54;3.47;;;1.25;;
69310;SDS011;56430;48.154;16.458;2023-05-10T01:08:21;2.97;;;0.77;;
69310;SDS011;56430;48.154;16.458;2023-05-10T01:10:48;3.53;;;0.70;;
69310;SDS011;56430;48.154;16.458;2023-05-10T01:13:16;2.10;;;0.47;;
69310;SDS011;56430;48.154;16.458;2023-05-10T01:15:45;2.60;;;0.90;;
69310;SDS011;56430;48.154;16.458;2023-05-10T01:18:14;2.67;;;0.63;;
69310;SDS011;56430;48.154;16.458;2023-05-10T01:20:43;6.07;;;0.63;;
69310;SDS011;56430;48.154;16.458;2023-05-10T01:23:17;3.45;;;0.90;;
69310;SDS011;56430;48.154;16.458;2023-05-10T01:28:58;3.63;;;0.90;;
69310;SDS011;56430;48.154;16.458;2023-05-10T01:31:34;2.72;;;0.70;;
69310;SDS011;56430;48.154;16.458;2023-05-10T01:34:12;2.75;;;0.73;;
69310;SDS011;56430;48.154;16.458;2023-05-10T01:36:43;2.83;;;0.70;;
69310;SDS011;56430;48.154;16.458;2023-05-10T01:39:14;2.53;;;0.80;;
69310;SDS011;56430;48.154;16.458;2023-05-10T01:41:44;2.75;;;0.60;;
69310;SDS011;56430;48.154;16.458;2023-05-10T01:44:16;5.30;;;0.70;;
69310;SDS011;56430;48.154;16.458;2023-05-10T01:46:44;2.83;;;0.68;;
69310;SDS011;56430;48.154;16.458;2023-05-10T01:49:19;2.63;;;0.80;;
69310;SDS011;56430;48.154;16.458;2023-05-10T01:51:48;2.43;;;0.80;;
69310;SDS011;56430;48.154;16.458;2023-05-10T01:54:19;2.35;;;0.63;;
69310;SDS011;56430;48.154;16.458;2023-05-10T01:56:47;3.20;;;1.00;;
69310;SDS011;56430;48.154;16.458;2023-05-10T01:59:15;3.25;;;0.70;;
69310;SDS011;56430;48.154;16.458;2023-05-10T02:01:43;3.03;;;0.77;;
69310;SDS011;56430;48.154;16.458;2023-05-10T02:04:11;2.70;;;0.83;;
69310;SDS011;56430;48.154;16.458;2023-05-10T02:06:41;2.67;;;0.90;;
69310;SDS011;56430;48.154;16.458;2023-05-10T02:09:09;5.75;;;1.20;;
69310;SDS011;56430;48.154;16.458;2023-05-10T02:11:52;2.75;;;1.00;;
69310;SDS011;56430;48.154;16.458;2023-05-10T02:14:20;2.83;;;1.00;;
69310;SDS011;56430;48.154;16.458;2023-05-10T02:16:47;2.43;;;0.80;;
69310;SDS011;56430;48.154;16.458;2023-05-10T02:19:14;3.53;;;1.20;;
69310;SDS011;56430;48.154;16.458;2023-05-10T02:21:43;2.30;;;0.80;;
69310;SDS011;56430;48.154;16.458;2023-05-10T02:24:10;2.80;;;0.98;;
69310;SDS011;56430;48.154;16.458;2023-05-10T02:26:38;2.83;;;0.82;;
69310;SDS011;56430;48.154;16.458;2023-05-10T02:29:05;3.00;;;0.87;;
69310;SDS011;56430;48.154;16.458;2023-05-10T02:31:33;3.97;;;0.68;;
69310;SDS011;56430;48.154;16.458;2023-05-10T02:34:00;2.30;;;0.85;;
69310;SDS011;56430;48.154;16.458;2023-05-10T02:36:28;2.97;;;0.85;;
69310;SDS011;56430;48.154;16.458;2023-05-10T02:38:56;3.00;;;0.93;;
69310;SDS011;56430;48.154;16.458;2023-05-10T02:41:24;3.87;;;1.43;;
69310;SDS011;56430;48.154;16.458;2023-05-10T02:43:51;3.05;;;0.95;;
69310;SDS011;56430;48.154;16.458;2023-05-10T02:46:21;2.40;;;0.82;;
69310;SDS011;56430;48.154;16.458;2023-05-10T02:48:48;3.75;;;1.40;;
69310;SDS011;56430;48.154;16.458;2023-05-10T02:51:15;3.85;;;0.98;;
69310;SDS011;56430;48.154;16.458;2023-05-10T02:53:45;2.90;;;1.13;;
69310;SDS011;56430;48.154;16.458;2023-05-10T02:56:15;3.17;;;1.02;;
69310;SDS011;56430;48.154;16.458;2023-05-10T02:58:44;2.75;;;0.80;;
69310;SDS011;56430;48.154;16.458;2023-05-10T03:01:11;3.47;;;1.05;;
69310;SDS011;56430;48.154;16.458;2023-05-10T03:03:38;2.78;;;0.77;;
69310;SDS011;56430;48.154;16.458;2023-05-10T03:06:08;2.10;;;0.40;;
69310;SDS011;56430;48.154;16.458;2023-05-10T03:08:35;4.00;;;1.08;;
69310;SDS011;56430;48.154;16.458;2023-05-10T03:11:08;4.50;;;1.00;;
69310;SDS011;56430;48.154;16.458;2023-05-10T03:13:42;2.40;;;0.88;;
69310;SDS011;56430;48.154;16.458;2023-05-10T03:16:12;3.72;;;1.27;;
69310;SDS011;56430;48.154;16.458;2023-05-10T03:18:41;5.10;;;1.07;;
69310;SDS011;56430;48.154;16.458;2023-05-10T03:21:10;2.88;;;0.95;;
69310;SDS011;56430;48.154;16.458;2023-05-10T03:23:39;3.35;;;1.00;;
69310;SDS011;56430;48.154;16.458;2023-05-10T03:26:07;2.63;;;0.80;;
69310;SDS011;56430;48.154;16.458;2023-05-10T03:28:34;3.05;;;1.15;;
69310;SDS011;56430;48.154;16.458;2023-05-10T03:31:03;3.30;;;1.20;;
69310;SDS011;56430;48.154;16.458;2023-05-10T03:33:31;2.60;;;0.85;;
69310;SDS011;56430;48.154;16.458;2023-05-10T03:35:58;3.42;;;1.25;;
69310;SDS011;56430;48.154;16.458;2023-05-10T03:38:25;3.15;;;0.88;;
69310;SDS011;56430;48.154;16.458;2023-05-10T03:40:52;4.45;;;1.10;;
69310;SDS011;56430;48.154;16.458;2023-05-10T03:43:19;2.60;;;0.70;;
69310;SDS011;56430;48.154;16.458;2023-05-10T03:45:45;3.40;;;1.17;;
69310;SDS011;56430;48.154;16.458;2023-05-10T03:48:13;2.58;;;0.90;;
69310;SDS011;56430;48.154;16.458;2023-05-10T03:50:40;4.53;;;1.42;;
69310;SDS011;56430;48.154;16.458;2023-05-10T03:53:08;5.65;;;1.40;;
69310;SDS011;56430;48.154;16.458;2023-05-10T03:55:35;3.87;;;1.17;;
69310;SDS011;56430;48.154;16.458;2023-05-10T03:58:02;2.97;;;0.93;;
69310;SDS011;56430;48.154;16.458;2023-05-10T04:00:28;3.20;;;1.30;;
69310;SDS011;56430;48.154;16.458;2023-05-10T04:02:55;2.70;;;1.05;;
69310;SDS011;56430;48.154;16.458;2023-05-10T04:05:23;7.90;;;1.15;;
69310;SDS011;56430;48.154;16.458;2023-05-10T04:07:50;3.33;;;1.20;;
69310;SDS011;56430;48.154;16.458;2023-05-10T04:10:17;4.00;;;1.15;;
69310;SDS011;56430;48.154;16.458;2023-05-10T04:12:44;3.47;;;1.00;;
69310;SDS011;56430;48.154;16.458;2023-05-10T04:15:13;3.10;;;1.10;;
69310;SDS011;56430;48.154;16.458;2023-05-10T04:17:40;3.05;;;1.23;;
69310;SDS011;56430;48.154;16.458;2023-05-10T04:20:08;2.30;;;0.90;;
69310;SDS011;56430;48.154;16.458;2023-05-10T04:22:36;3.30;;;1.20;;
69310;SDS011;56430;48.154;16.458;2023-05-10T04:25:04;3.88;;;1.48;;
69310;SDS011;56430;48.154;16.458;2023-05-10T04:27:31;3.80;;;1.15;;
69310;SDS011;56430;48.154;16.458;2023-05-10T04:29:58;3.75;;;1.27;;
69310;SDS011;56430;48.154;16.458;2023-05-10T04:32:25;3.10;;;1.43;;
69310;SDS011;56430;48.154;16.458;2023-05-10T04:34:52;4.65;;;1.13;;
69310;SDS011;56430;48.154;16.458;2023-05-10T04:37:19;3.28;;;1.08;;
69310;SDS011;56430;48.154;16.458;2023-05-10T04:39:48;2.80;;;1.02;;
69310;SDS011;56430;48.154;16.458;2023-05-10T04:42:14;2.80;;;1.08;;
69310;SDS011;56430;48.154;16.458;2023-05-10T04:44:41;6.07;;;1.23;;
69310;SDS011;56430;48.154;16.458;2023-05-10T04:47:09;2.97;;;0.90;;
69310;SDS011;56430;48.154;16.458;2023-05-10T04:49:36;4.13;;;0.95;;
69310;SDS011;56430;48.154;16.458;2023-05-10T04:52:03;12.77;;;1.48;;
69310;SDS011;56430;48.154;16.458;2023-05-10T04:54:30;9.40;;;1.90;;
69310;SDS011;56430;48.154;16.458;2023-05-10T04:56:58;9.03;;;1.30;;
69310;SDS011;56430;48.154;16.458;2023-05-10T04:59:25;2.92;;;0.85;;
69310;SDS011;56430;48.154;16.458;2023-05-10T05:01:52;9.70;;;1.67;;
69310;SDS011;56430;48.154;16.458;2023-05-10T05:04:19;5.22;;;1.65;;
69310;SDS011;56430;48.154;16.458;2023-05-10T05:06:45;11.13;;;2.25;;
69310;SDS011;56430;48.154;16.458;2023-05-10T05:09:12;3.93;;;1.20;;
69310;SDS011;56430;48.154;16.458;2023-05-10T05:11:39;4.32;;;0.80;;
69310;SDS011;56430;48.154;16.458;2023-05-10T05:14:07;4.85;;;1.20;;
69310;SDS011;56430;48.154;16.458;2023-05-10T05:16:34;2.70;;;0.88;;
69310;SDS011;56430;48.154;16.458;2023-05-10T05:19:01;3.88;;;1.50;;
69310;SDS011;56430;48.154;16.458;2023-05-10T05:21:28;2.90;;;1.10;;
69310;SDS011;56430;48.154;16.458;2023-05-10T05:23:55;4.75;;;1.50;;
69310;SDS011;56430;48.154;16.458;2023-05-10T05:26:21;4.22;;;1.58;;
69310;SDS011;56430;48.154;16.458;2023-05-10T05:28:48;4.55;;;1.27;;
69310;SDS011;56430;48.154;16.458;2023-05-10T05:31:19;8.18;;;1.40;;
69310;SDS011;56430;48.154;16.458;2023-05-10T05:33:46;5.87;;;1.37;;
69310;SDS011;56430;48.154;16.458;2023-05-10T05:36:13;4.70;;;1.80;;
69310;SDS011;56430;48.154;16.458;2023-05-10T05:38:40;5.13;;;1.33;;
69310;SDS011;56430;48.154;16.458;2023-05-10T05:41:06;14.88;;;1.90;;
69310;SDS011;56430;48.154;16.458;2023-05-10T05:43:33;8.82;;;1.70;;
69310;SDS011;56430;48.154;16.458;2023-05-10T05:46:00;2.43;;;1.07;;
69310;SDS011;56430;48.154;16.458;2023-05-10T05:48:28;4.32;;;1.83;;
69310;SDS011;56430;48.154;16.458;2023-05-10T05:50:55;3.45;;;1.30;;
69310;SDS011;56430;48.154;16.458;2023-05-10T05:53:23;4.22;;;1.45;;
69310;SDS011;56430;48.154;16.458;2023-05-10T05:55:52;4.38;;;0.90;;
69310;SDS011;56430;48.154;16.458;2023-05-10T05:58:20;3.23;;;1.30;;
69310;SDS011;56430;48.154;16.458;2023-05-10T06:00:47;9.50;;;1.65;;
69310;SDS011;56430;48.154;16.458;2023-05-10T06:03:14;5.45;;;1.63;;
69310;SDS011;56430;48.154;16.458;2023-05-10T06:05:42;4.00;;;1.50;;
69310;SDS011;56430;48.154;16.458;2023-05-10T06:08:09;8.80;;;2.40;;
69310;SDS011;56430;48.154;16.458;2023-05-10T06:10:36;5.93;;;1.70;;
69310;SDS011;56430;48.154;16.458;2023-05-10T06:13:03;5.22;;;1.38;;
69310;SDS011;56430;48.154;16.458;2023-05-10T06:15:30;4.03;;;1.52;;
69310;SDS011;56430;48.154;16.458;2023-05-10T06:17:58;5.47;;;1.38;;
69310;SDS011;56430;48.154;16.458;2023-05-10T06:20:24;4.93;;;1.38;;
69310;SDS011;56430;48.154;16.458;2023-05-10T06:22:53;7.67;;;2.00;;
69310;SDS011;56430;48.154;16.458;2023-05-10T06:25:19;8.32;;;1.52;;
69310;SDS011;56430;48.154;16.458;2023-05-10T06:27:46;4.22;;;1.23;;
69310;SDS011;56430;48.154;16.458;2023-05-10T06:30:14;6.32;;;1.30;;
69310;SDS011;56430;48.154;16.458;2023-05-10T06:32:41;6.00;;;1.50;;
69310;SDS011;56430;48.154;16.458;2023-05-10T06:35:09;6.33;;;1.47;;
69310;SDS011;56430;48.154;16.458;2023-05-10T06:37:36;3.97;;;1.00;;
69310;SDS011;56430;48.154;16.458;2023-05-10T06:40:05;4.10;;;2.33;;
69310;SDS011;56430;48.154;16.458;2023-05-10T06:42:32;7.65;;;1.70;;
69310;SDS011;56430;48.154;16.458;2023-05-10T06:44:58;3.97;;;1.45;;
69310;SDS011;56430;48.154;16.458;2023-05-10T06:47:25;7.33;;;1.47;;
69310;SDS011;56430;48.154;16.458;2023-05-10T06:49:52;4.82;;;1.48;;
69310;SDS011;56430;48.154;16.458;2023-05-10T06:52:21;3.70;;;1.20;;
69310;SDS011;56430;48.154;16.458;2023-05-10T06:54:48;3.45;;;1.15;;
69310;SDS011;56430;48.154;16.458;2023-05-10T06:57:17;8.68;;;1.45;;
69310;SDS011;56430;48.154;16.458;2023-05-10T06:59:44;5.83;;;2.00;;
69310;SDS011;56430;48.154;16.458;2023-05-10T07:02:11;3.78;;;1.35;;
69310;SDS011;56430;48.154;16.458;2023-05-10T07:04:38;3.85;;;1.50;;
69310;SDS011;56430;48.154;16.458;2023-05-10T07:07:05;4.40;;;1.73;;
69310;SDS011;56430;48.154;16.458;2023-05-10T07:09:32;3.45;;;1.38;;
69310;SDS011;56430;48.154;16.458;2023-05-10T07:11:58;4.87;;;1.50;;
69310;SDS011;56430;48.154;16.458;2023-05-10T07:14:28;3.78;;;1.38;;
69310;SDS011;56430;48.154;16.458;2023-05-10T07:16:55;4.53;;;1.38;;
69310;SDS011;56430;48.154;16.458;2023-05-10T07:19:24;4.55;;;1.52;;
69310;SDS011;56430;48.154;16.458;2023-05-10T07:21:51;4.82;;;1.95;;
69310;SDS011;56430;48.154;16.458;2023-05-10T07:24:18;4.53;;;1.70;;
69310;SDS011;56430;48.154;16.458;2023-05-10T07:26:48;3.17;;;1.13;;
69310;SDS011;56430;48.154;16.458;2023-05-10T07:29:14;6.70;;;1.85;;
69310;SDS011;56430;48.154;16.458;2023-05-10T07:31:43;3.45;;;1.85;;
69310;SDS011;56430;48.154;16.458;2023-05-10T07:34:10;5.78;;;1.75;;
69310;SDS011;56430;48.154;16.458;2023-05-10T07:36:36;4.13;;;1.60;;
69310;SDS011;56430;48.154;16.458;2023-05-10T07:39:03;4.30;;;1.88;;
69310;SDS011;56430;48.154;16.458;2023-05-10T07:41:30;7.90;;;2.45;;
69310;SDS011;56430;48.154;16.458;2023-05-10T07:43:58;5.53;;;2.13;;
69310;SDS011;56430;48.154;16.458;2023-05-10T07:46:25;5.25;;;1.95;;
69310;SDS011;56430;48.154;16.458;2023-05-10T07:48:53;4.77;;;1.50;;
69310;SDS011;56430;48.154;16.458;2023-05-10T07:51:20;3.53;;;1.77;;
69310;SDS011;56430;48.154;16.458;2023-05-10T07:53:47;4.28;;;2.08;;
69310;SDS011;56430;48.154;16.458;2023-05-10T07:56:21;3.15;;;1.65;;
69310;SDS011;56430;48.154;16.458;2023-05-10T07:58:48;5.60;;;1.60;;
69310;SDS011;56430;48.154;16.458;2023-05-10T08:01:15;11.80;;;2.33;;
69310;SDS011;56430;48.154;16.458;2023-05-10T08:03:41;5.73;;;2.53;;
69310;SDS011;56430;48.154;16.458;2023-05-10T08:06:10;3.92;;;1.80;;
69310;SDS011;56430;48.154;16.458;2023-05-10T08:08:37;3.90;;;1.90;;
69310;SDS011;56430;48.154;16.458;2023-05-10T08:11:04;8.02;;;1.90;;
69310;SDS011;56430;48.154;16.458;2023-05-10T08:13:31;16.15;;;2.30;;
69310;SDS011;56430;48.154;16.458;2023-05-10T08:15:58;8.27;;;2.22;;
69310;SDS011;56430;48.154;16.458;2023-05-10T08:21:29;10.07;;;2.70;;
69310;SDS011;56430;48.154;16.458;2023-05-10T08:23:56;8.33;;;2.70;;
69310;SDS011;56430;48.154;16.458;2023-05-10T08:26:23;4.97;;;1.98;;
69310;SDS011;56430;48.154;16.458;2023-05-10T08:28:50;3.78;;;1.70;;
69310;SDS011;56430;48.154;16.458;2023-05-10T08:31:17;8.88;;;2.22;;
69310;SDS011;56430;48.154;16.458;2023-05-10T08:33:44;7.93;;;1.90;;
69310;SDS011;56430;48.154;16.458;2023-05-10T08:36:11;7.22;;;1.40;;
69310;SDS011;56430;48.154;16.458;2023-05-10T08:38:42;5.35;;;1.70;;
69310;SDS011;56430;48.154;16.458;2023-05-10T08:41:09;5.28;;;1.48;;
69310;SDS011;56430;48.154;16.458;2023-05-10T08:43:37;2.83;;;1.27;;
69310;SDS011;56430;48.154;16.458;2023-05-10T08:46:04;2.73;;;1.20;;
69310;SDS011;56430;48.154;16.458;2023-05-10T08:48:31;10.17;;;2.00;;
69310;SDS011;56430;48.154;16.458;2023-05-10T08:51:00;8.85;;;1.85;;
69310;SDS011;56430;48.154;16.458;2023-05-10T08:53:28;4.10;;;1.40;;
69310;SDS011;56430;48.154;16.458;2023-05-10T08:55:58;3.85;;;1.30;;
69310;SDS011;56430;48.154;16.458;2023-05-10T08:58:25;5.47;;;1.42;;
69310;SDS011;56430;48.154;16.458;2023-05-10T09:00:52;6.90;;;1.48;;
69310;SDS011;56430;48.154;16.458;2023-05-10T09:03:20;8.88;;;1.73;;
69310;SDS011;56430;48.154;16.458;2023-05-10T09:05:47;6.68;;;1.48;;
69310;SDS011;56430;48.154;16.458;2023-05-10T09:08:14;2.08;;;0.90;;
69310;SDS011;56430;48.154;16.458;2023-05-10T09:10:42;2.17;;;0.90;;
69310;SDS011;56430;48.154;16.458;2023-05-10T09:13:11;1.87;;;0.80;;
69310;SDS011;56430;48.154;16.458;2023-05-10T09:15:38;10.80;;;2.00;;
69310;SDS011;56430;48.154;16.458;2023-05-10T09:18:08;5.13;;;1.33;;
69310;SDS011;56430;48.154;16.458;2023-05-10T09:20:35;7.68;;;1.13;;
69310;SDS011;56430;48.154;16.458;2023-05-10T09:23:01;3.13;;;1.05;;
69310;SDS011;56430;48.154;16.458;2023-05-10T09:25:31;3.38;;;0.98;;
69310;SDS011;56430;48.154;16.458;2023-05-10T09:27:59;6.43;;;1.50;;
69310;SDS011;56430;48.154;16.458;2023-05-10T09:30:28;8.75;;;1.98;;
69310;SDS011;56430;48.154;16.458;2023-05-10T09:32:55;6.50;;;1.75;;
69310;SDS011;56430;48.154;16.458;2023-05-10T09:35:23;5.07;;;0.90;;
69310;SDS011;56430;48.154;16.458;2023-05-10T09:37:51;2.80;;;1.07;;
69310;SDS011;56430;48.154;16.458;2023-05-10T09:40:19;2.10;;;0.70;;
69310;SDS011;56430;48.154;16.458;2023-05-10T09:42:53;3.63;;;1.25;;
69310;SDS011;56430;48.154;16.458;2023-05-10T09:45:20;5.55;;;1.13;;
69310;SDS011;56430;48.154;16.458;2023-05-10T09:47:48;4.15;;;1.00;;
69310;SDS011;56430;48.154;16.458;2023-05-10T09:50:15;2.90;;;0.80;;
69310;SDS011;56430;48.154;16.458;2023-05-10T09:52:45;1.75;;;0.70;;
69310;SDS011;56430;48.154;16.458;2023-05-10T09:55:13;2.45;;;0.70;;
69310;SDS011;56430;48.154;16.458;2023-05-10T09:57:40;1.88;;;0.52;;
69310;SDS011;56430;48.154;16.458;2023-05-10T10:00:07;1.83;;;0.50;;
69310;SDS011;56430;48.154;16.458;2023-05-10T10:02:35;1.60;;;0.52;;
69310;SDS011;56430;48.154;16.458;2023-05-10T10:05:03;2.83;;;0.60;;
69310;SDS011;56430;48.154;16.458;2023-05-10T10:07:30;2.45;;;0.80;;
69310;SDS011;56430;48.154;16.458;2023-05-10T10:09:58;4.40;;;0.82;;
69310;SDS011;56430;48.154;16.458;2023-05-10T10:12:25;1.55;;;0.50;;
69310;SDS011;56430;48.154;16.458;2023-05-10T10:14:52;2.75;;;0.70;;
69310;SDS011;56430;48.154;16.458;2023-05-10T10:17:19;4.47;;;0.60;;
69310;SDS011;56430;48.154;16.458;2023-05-10T10:19:46;1.92;;;0.65;;
69310;SDS011;56430;48.154;16.458;2023-05-10T10:22:15;1.60;;;0.50;;
69310;SDS011;56430;48.154;16.458;2023-05-10T10:24:41;1.50;;;0.60;;
69310;SDS011;56430;48.154;16.458;2023-05-10T10:27:13;2.53;;;0.75;;
69310;SDS011;56430;48.154;16.458;2023-05-10T10:29:44;2.75;;;0.80;;
69310;SDS011;56430;48.154;16.458;2023-05-10T10:32:18;2.08;;;0.70;;
69310;SDS011;56430;48.154;16.458;2023-05-10T10:34:46;2.97;;;0.80;;
69310;SDS011;56430;48.154;16.458;2023-05-10T10:37:14;3.67;;;0.70;;
69310;SDS011;56430;48.154;16.458;2023-05-10T10:39:42;3.05;;;0.90;;
69310;SDS011;56430;48.154;16.458;2023-05-10T10:42:09;2.38;;;0.85;;
69310;SDS011;56430;48.154;16.458;2023-05-10T10:44:36;2.00;;;0.80;;
69310;SDS011;56430;48.154;16.458;2023-05-10T10:47:05;2.23;;;0.70;;
69310;SDS011;56430;48.154;16.458;2023-05-10T10:49:37;9.20;;;1.30;;
69310;SDS011;56430;48.154;16.458;2023-05-10T10:52:15;1.80;;;0.60;;
69310;SDS011;56430;48.154;16.458;2023-05-10T10:54:46;3.00;;;0.82;;
69310;SDS011;56430;48.154;16.458;2023-05-10T10:57:17;3.00;;;1.00;;
69310;SDS011;56430;48.154;16.458;2023-05-10T10:59:47;10.23;;;1.08;;
69310;SDS011;56430;48.154;16.458;2023-05-10T11:02:34;3.15;;;0.93;;
69310;SDS011;56430;48.154;16.458;2023-05-10T11:05:23;5.28;;;1.00;;
69310;SDS011;56430;48.154;16.458;2023-05-10T11:07:54;2.90;;;0.70;;
69310;SDS011;56430;48.154;16.458;2023-05-10T11:10:21;7.70;;;1.00;;
69310;SDS011;56430;48.154;16.458;2023-05-10T11:12:51;2.47;;;0.50;;
69310;SDS011;56430;48.154;16.458;2023-05-10T11:15:19;1.83;;;0.52;;
69310;SDS011;56430;48.154;16.458;2023-05-10T11:17:47;3.67;;;0.75;;
69310;SDS011;56430;48.154;16.458;2023-05-10T11:20:20;2.95;;;0.70;;
69310;SDS011;56430;48.154;16.458;2023-05-10T11:22:50;3.28;;;0.55;;
69310;SDS011;56430;48.154;16.458;2023-05-10T11:25:18;4.93;;;0.60;;
69310;SDS011;56430;48.154;16.458;2023-05-10T11:27:47;2.30;;;0.60;;
69310;SDS011;56430;48.154;16.458;2023-05-10T11:30:17;2.17;;;0.50;;
69310;SDS011;56430;48.154;16.458;2023-05-10T11:32:44;5.90;;;0.60;;
69310;SDS011;56430;48.154;16.458;2023-05-10T11:35:11;17.23;;;2.35;;
69310;SDS011;56430;48.154;16.458;2023-05-10T11:37:38;3.83;;;0.65;;
69310;SDS011;56430;48.154;16.458;2023-05-10T11:43:13;10.23;;;0.97;;
69310;SDS011;56430;48.154;16.458;2023-05-10T11:45:40;11.27;;;1.40;;
69310;SDS011;56430;48.154;16.458;2023-05-10T11:48:07;2.70;;;0.63;;
69310;SDS011;56430;48.154;16.458;2023-05-10T11:50:34;7.05;;;0.88;;
69310;SDS011;56430;48.154;16.458;2023-05-10T11:53:01;3.67;;;0.70;;
69310;SDS011;56430;48.154;16.458;2023-05-10T11:55:28;4.32;;;0.80;;
69310;SDS011;56430;48.154;16.458;2023-05-10T11:57:59;3.30;;;0.70;;
69310;SDS011;56430;48.154;16.458;2023-05-10T12:00:28;13.90;;;1.30;;
69310;SDS011;56430;48.154;16.458;2023-05-10T12:02:55;3.22;;;1.15;;
69310;SDS011;56430;48.154;16.458;2023-05-10T12:05:22;2.00;;;0.65;;
69310;SDS011;56430;48.154;16.458;2023-05-10T12:07:49;3.75;;;0.60;;
69310;SDS011;56430;48.154;16.458;2023-05-10T12:10:16;12.20;;;0.80;;
69310;SDS011;56430;48.154;16.458;2023-05-10T12:12:43;2.67;;;0.45;;
69310;SDS011;56430;48.154;16.458;2023-05-10T12:15:11;2.60;;;0.25;;
69310;SDS011;56430;48.154;16.458;2023-05-10T12:17:40;1.83;;;0.60;;
69310;SDS011;56430;48.154;16.458;2023-05-10T12:20:13;10.23;;;1.10;;
69310;SDS011;56430;48.154;16.458;2023-05-10T12:22:40;7.20;;;1.23;;
69310;SDS011;56430;48.154;16.458;2023-05-10T12:25:08;2.93;;;0.67;;
69310;SDS011;56430;48.154;16.458;2023-05-10T12:27:35;2.30;;;0.80;;
69310;SDS011;56430;48.154;16.458;2023-05-10T12:30:02;6.20;;;0.95;;
69310;SDS011;56430;48.154;16.458;2023-05-10T12:32:39;6.82;;;1.08;;
69310;SDS011;56430;48.154;16.458;2023-05-10T12:35:07;6.57;;;1.00;;
69310;SDS011;56430;48.154;16.458;2023-05-10T12:37:34;5.10;;;0.70;;
69310;SDS011;56430;48.154;16.458;2023-05-10T12:40:05;6.00;;;0.67;;
69310;SDS011;56430;48.154;16.458;2023-05-10T12:42:33;3.05;;;0.73;;
69310;SDS011;56430;48.154;16.458;2023-05-10T12:45:01;4.65;;;1.10;;
69310;SDS011;56430;48.154;16.458;2023-05-10T12:47:28;3.22;;;0.68;;
69310;SDS011;56430;48.154;16.458;2023-05-10T12:49:56;3.67;;;0.75;;
69310;SDS011;56430;48.154;16.458;2023-05-10T12:52:23;2.60;;;1.17;;
69310;SDS011;56430;48.154;16.458;2023-05-10T12:54:50;3.90;;;0.68;;
69310;SDS011;56430;48.154;16.458;2023-05-10T12:57:16;3.53;;;0.75;;
69310;SDS011;56430;48.154;16.458;2023-05-10T12:59:43;2.35;;;0.80;;
69310;SDS011;56430;48.154;16.458;2023-05-10T13:02:10;2.42;;;0.80;;
69310;SDS011;56430;48.154;16.458;2023-05-10T13:04:37;2.13;;;0.97;;
69310;SDS011;56430;48.154;16.458;2023-05-10T13:07:06;2.20;;;0.90;;
69310;SDS011;56430;48.154;16.458;2023-05-10T13:09:33;2.10;;;0.80;;
69310;SDS011;56430;48.154;16.458;2023-05-10T13:12:00;3.80;;;1.02;;
69310;SDS011;56430;48.154;16.458;2023-05-10T13:14:27;2.33;;;1.20;;
69310;SDS011;56430;48.154;16.458;2023-05-10T13:16:54;2.57;;;1.10;;
69310;SDS011;56430;48.154;16.458;2023-05-10T13:19:21;2.30;;;1.25;;
69310;SDS011;56430;48.154;16.458;2023-05-10T13:21:48;4.40;;;1.10;;
69310;SDS011;56430;48.154;16.458;2023-05-10T13:24:16;2.55;;;1.13;;
69310;SDS011;56430;48.154;16.458;2023-05-10T13:26:43;5.65;;;1.05;;
69310;SDS011;56430;48.154;16.458;2023-05-10T13:29:10;2.13;;;0.80;;
69310;SDS011;56430;48.154;16.458;2023-05-10T13:31:37;5.60;;;1.00;;
69310;SDS011;56430;48.154;16.458;2023-05-10T13:34:04;2.10;;;0.63;;
69310;SDS011;56430;48.154;16.458;2023-05-10T13:36:31;3.45;;;1.05;;
69310;SDS011;56430;48.154;16.458;2023-05-10T13:38:58;5.32;;;1.08;;
69310;SDS011;56430;48.154;16.458;2023-05-10T13:41:28;2.87;;;0.80;;
69310;SDS011;56430;48.154;16.458;2023-05-10T13:43:54;2.60;;;0.60;;
69310;SDS011;56430;48.154;16.458;2023-05-10T13:46:21;2.00;;;1.00;;
69310;SDS011;56430;48.154;16.458;2023-05-10T13:48:48;2.40;;;0.82;;
69310;SDS011;56430;48.154;16.458;2023-05-10T13:51:15;3.03;;;0.88;;
69310;SDS011;56430;48.154;16.458;2023-05-10T13:53:42;2.30;;;0.97;;
69310;SDS011;56430;48.154;16.458;2023-05-10T13:56:09;4.30;;;0.90;;
69310;SDS011;56430;48.154;16.458;2023-05-10T13:58:37;1.70;;;0.70;;
69310;SDS011;56430;48.154;16.458;2023-05-10T14:01:04;2.85;;;0.90;;
69310;SDS011;56430;48.154;16.458;2023-05-10T14:03:31;2.00;;;0.60;;
69310;SDS011;56430;48.154;16.458;2023-05-10T14:05:58;2.50;;;0.70;;
69310;SDS011;56430;48.154;16.458;2023-05-10T14:08:25;3.30;;;0.77;;
69310;SDS011;56430;48.154;16.458;2023-05-10T14:10:53;5.28;;;0.90;;
69310;SDS011;56430;48.154;16.458;2023-05-10T14:13:21;8.43;;;1.70;;
69310;SDS011;56430;48.154;16.458;2023-05-10T14:15:49;5.00;;;1.30;;
69310;SDS011;56430;48.154;16.458;2023-05-10T14:18:17;2.33;;;0.87;;
69310;SDS011;56430;48.154;16.458;2023-05-10T14:20:43;9.35;;;1.13;;
69310;SDS011;56430;48.154;16.458;2023-05-10T14:23:10;7.28;;;0.90;;
69310;SDS011;56430;48.154;16.458;2023-05-10T14:25:37;9.23;;;1.45;;
69310;SDS011;56430;48.154;16.458;2023-05-10T14:28:04;3.63;;;0.80;;
69310;SDS011;56430;48.154;16.458;2023-05-10T14:30:31;5.13;;;1.20;;
69310;SDS011;56430;48.154;16.458;2023-05-10T14:33:01;3.43;;;1.10;;
69310;SDS011;56430;48.154;16.458;2023-05-10T14:35:28;2.47;;;0.60;;
69310;SDS011;56430;48.154;16.458;2023-05-10T14:37:56;2.88;;;0.70;;
69310;SDS011;56430;48.154;16.458;2023-05-10T14:40:23;3.60;;;0.77;;
69310;SDS011;56430;48.154;16.458;2023-05-10T14:42:50;2.67;;;0.80;;
69310;SDS011;56430;48.154;16.458;2023-05-10T14:45:18;1.77;;;0.40;;
69310;SDS011;56430;48.154;16.458;2023-05-10T14:47:45;1.67;;;0.40;;